sensor_id;sensor_type;location;lat;lon;timestamp;P1;durP1;ratioP1;P2;durP2;ratioP2
43098;SDS011;28715;51.988;6.020;2022-08-19T00:01:52;15.53;;;12.73;;
43098;SDS011;28715;51.988;6.020;2022-08-19T00:04:21;17.03;;;13.73;;
43098;SDS011;28715;51.988;6.020;2022-08-19T00:06:49;15.77;;;14.00;;
43098;SDS011;28715;51.988;6.020;2022-08-19T00:09:16;19.10;;;14.47;;
43098;SDS011;28715;51.988;6.020;2022-08-19T00:11:43;19.03;;;15.47;;
43098;SDS011;28715;51.988;6.020;2022-08-19T00:14:10;18.70;;;15.20;;
43098;SDS011;28715;51.988;6.020;2022-08-19T00:16:38;18.97;;;15.23;;
43098;SDS011;28715;51.988;6.020;2022-08-19T00:19:04;19.63;;;15.87;;
43098;SDS011;28715;51.988;6.020;2022-08-19T00:21:30;20.40;;;16.43;;
43098;SDS011;28715;51.988;6.020;2022-08-19T00:23:56;18.80;;;15.67;;
43098;SDS011;28715;51.988;6.020;2022-08-19T00:26:23;20.37;;;15.67;;
43098;SDS011;28715;51.988;6.020;2022-08-19T00:28:52;20.80;;;16.40;;
43098;SDS011;28715;51.988;6.020;2022-08-19T00:31:18;19.87;;;15.93;;
43098;SDS011;28715;51.988;6.020;2022-08-19T00:33:44;22.17;;;17.13;;
43098;SDS011;28715;51.988;6.020;2022-08-19T00:36:10;20.97;;;16.43;;
43098;SDS011;28715;51.988;6.020;2022-08-19T00:38:37;17.73;;;15.07;;
43098;SDS011;28715;51.988;6.020;2022-08-19T00:41:07;24.67;;;18.03;;
43098;SDS011;28715;51.988;6.020;2022-08-19T00:43:33;22.57;;;17.23;;
43098;SDS011;28715;51.988;6.020;2022-08-19T00:45:59;19.80;;;16.30;;
43098;SDS011;28715;51.988;6.020;2022-08-19T00:48:26;23.03;;;18.10;;
43098;SDS011;28715;51.988;6.020;2022-08-19T00:50:52;23.57;;;18.80;;
43098;SDS011;28715;51.988;6.020;2022-08-19T00:53:20;25.23;;;19.20;;
43098;SDS011;28715;51.988;6.020;2022-08-19T00:55:49;27.60;;;21.33;;
43098;SDS011;28715;51.988;6.020;2022-08-19T00:58:19;30.00;;;23.63;;
43098;SDS011;28715;51.988;6.020;2022-08-19T01:03:14;32.13;;;23.10;;
43098;SDS011;28715;51.988;6.020;2022-08-19T01:05:42;26.85;;;22.33;;
43098;SDS011;28715;51.988;6.020;2022-08-19T01:08:09;30.20;;;23.23;;
43098;SDS011;28715;51.988;6.020;2022-08-19T01:10:45;29.77;;;23.57;;
43098;SDS011;28715;51.988;6.020;2022-08-19T01:13:14;30.27;;;24.63;;
43098;SDS011;28715;51.988;6.020;2022-08-19T01:15:44;33.72;;;25.02;;
43098;SDS011;28715;51.988;6.020;2022-08-19T01:18:14;31.93;;;24.93;;
43098;SDS011;28715;51.988;6.020;2022-08-19T01:20:43;35.53;;;26.17;;
43098;SDS011;28715;51.988;6.020;2022-08-19T01:23:10;34.00;;;25.05;;
43098;SDS011;28715;51.988;6.020;2022-08-19T01:25:45;34.90;;;25.90;;
43098;SDS011;28715;51.988;6.020;2022-08-19T01:28:18;36.10;;;26.53;;
43098;SDS011;28715;51.988;6.020;2022-08-19T01:30:46;32.22;;;25.98;;
43098;SDS011;28715;51.988;6.020;2022-08-19T01:33:13;36.90;;;25.73;;
43098;SDS011;28715;51.988;6.020;2022-08-19T01:35:39;39.07;;;27.53;;
43098;SDS011;28715;51.988;6.020;2022-08-19T01:38:07;34.80;;;26.23;;
43098;SDS011;28715;51.988;6.020;2022-08-19T01:43:03;35.10;;;25.60;;
43098;SDS011;28715;51.988;6.020;2022-08-19T01:45:29;33.93;;;24.83;;
43098;SDS011;28715;51.988;6.020;2022-08-19T01:47:57;36.43;;;26.57;;
43098;SDS011;28715;51.988;6.020;2022-08-19T01:50:23;33.40;;;24.50;;
43098;SDS011;28715;51.988;6.020;2022-08-19T01:52:49;36.77;;;25.97;;
43098;SDS011;28715;51.988;6.020;2022-08-19T01:55:16;34.50;;;25.37;;
43098;SDS011;28715;51.988;6.020;2022-08-19T01:57:44;37.75;;;26.98;;
43098;SDS011;28715;51.988;6.020;2022-08-19T02:00:14;35.20;;;26.63;;
43098;SDS011;28715;51.988;6.020;2022-08-19T02:02:42;39.00;;;27.50;;
43098;SDS011;28715;51.988;6.020;2022-08-19T02:05:08;37.53;;;27.17;;
43098;SDS011;28715;51.988;6.020;2022-08-19T02:07:35;35.80;;;27.23;;
43098;SDS011;28715;51.988;6.020;2022-08-19T02:10:03;39.73;;;25.97;;
43098;SDS011;28715;51.988;6.020;2022-08-19T02:12:31;36.17;;;26.33;;
43098;SDS011;28715;51.988;6.020;2022-08-19T02:14:56;33.43;;;26.43;;
43098;SDS011;28715;51.988;6.020;2022-08-19T02:17:23;33.13;;;25.93;;
43098;SDS011;28715;51.988;6.020;2022-08-19T02:19:48;37.70;;;27.03;;
43098;SDS011;28715;51.988;6.020;2022-08-19T02:22:14;38.13;;;27.63;;
43098;SDS011;28715;51.988;6.020;2022-08-19T02:24:39;38.03;;;26.73;;
43098;SDS011;28715;51.988;6.020;2022-08-19T02:27:05;36.27;;;26.37;;
43098;SDS011;28715;51.988;6.020;2022-08-19T02:29:31;37.53;;;26.87;;
43098;SDS011;28715;51.988;6.020;2022-08-19T02:31:56;38.60;;;27.13;;
43098;SDS011;28715;51.988;6.020;2022-08-19T02:34:23;38.83;;;28.03;;
43098;SDS011;28715;51.988;6.020;2022-08-19T02:36:50;35.77;;;27.33;;
43098;SDS011;28715;51.988;6.020;2022-08-19T02:39:16;37.60;;;27.07;;
43098;SDS011;28715;51.988;6.020;2022-08-19T02:41:42;41.47;;;28.80;;
43098;SDS011;28715;51.988;6.020;2022-08-19T02:44:08;40.53;;;27.77;;
43098;SDS011;28715;51.988;6.020;2022-08-19T02:46:34;36.37;;;26.97;;
43098;SDS011;28715;51.988;6.020;2022-08-19T02:49:02;36.33;;;26.70;;
43098;SDS011;28715;51.988;6.020;2022-08-19T02:53:57;36.73;;;26.87;;
43098;SDS011;28715;51.988;6.020;2022-08-19T02:56:24;37.60;;;26.50;;
43098;SDS011;28715;51.988;6.020;2022-08-19T02:58:52;41.93;;;27.50;;
43098;SDS011;28715;51.988;6.020;2022-08-19T03:01:29;41.83;;;28.30;;
43098;SDS011;28715;51.988;6.020;2022-08-19T03:03:57;37.43;;;27.63;;
43098;SDS011;28715;51.988;6.020;2022-08-19T03:06:24;41.03;;;28.50;;
43098;SDS011;28715;51.988;6.020;2022-08-19T03:08:50;37.57;;;26.33;;
43098;SDS011;28715;51.988;6.020;2022-08-19T03:11:17;34.50;;;26.80;;
43098;SDS011;28715;51.988;6.020;2022-08-19T03:13:44;38.72;;;27.63;;
43098;SDS011;28715;51.988;6.020;2022-08-19T03:16:11;37.10;;;26.23;;
43098;SDS011;28715;51.988;6.020;2022-08-19T03:18:37;41.60;;;27.57;;
43098;SDS011;28715;51.988;6.020;2022-08-19T03:21:03;39.43;;;26.77;;
43098;SDS011;28715;51.988;6.020;2022-08-19T03:23:30;39.30;;;27.97;;
43098;SDS011;28715;51.988;6.020;2022-08-19T03:25:55;38.53;;;26.43;;
43098;SDS011;28715;51.988;6.020;2022-08-19T03:28:21;38.53;;;26.70;;
43098;SDS011;28715;51.988;6.020;2022-08-19T03:30:57;41.10;;;25.77;;
43098;SDS011;28715;51.988;6.020;2022-08-19T03:33:24;37.97;;;27.20;;
43098;SDS011;28715;51.988;6.020;2022-08-19T03:36:09;47.50;;;28.43;;
43098;SDS011;28715;51.988;6.020;2022-08-19T03:38:38;44.83;;;30.60;;
43098;SDS011;28715;51.988;6.020;2022-08-19T03:41:07;43.33;;;29.60;;
43098;SDS011;28715;51.988;6.020;2022-08-19T03:43:36;47.97;;;29.83;;
43098;SDS011;28715;51.988;6.020;2022-08-19T03:46:07;44.07;;;29.60;;
43098;SDS011;28715;51.988;6.020;2022-08-19T03:48:34;45.87;;;29.97;;
43098;SDS011;28715;51.988;6.020;2022-08-19T03:51:01;45.00;;;30.40;;
43098;SDS011;28715;51.988;6.020;2022-08-19T03:53:28;43.00;;;29.10;;
43098;SDS011;28715;51.988;6.020;2022-08-19T03:55:55;46.80;;;31.70;;
43098;SDS011;28715;51.988;6.020;2022-08-19T03:58:24;47.22;;;30.48;;
43098;SDS011;28715;51.988;6.020;2022-08-19T04:00:52;49.23;;;30.17;;
43098;SDS011;28715;51.988;6.020;2022-08-19T04:03:18;49.23;;;30.47;;
43098;SDS011;28715;51.988;6.020;2022-08-19T04:05:43;45.87;;;30.83;;
43098;SDS011;28715;51.988;6.020;2022-08-19T04:08:10;42.47;;;28.03;;
43098;SDS011;28715;51.988;6.020;2022-08-19T04:10:36;44.80;;;29.20;;
43098;SDS011;28715;51.988;6.020;2022-08-19T04:13:02;43.90;;;28.57;;
43098;SDS011;28715;51.988;6.020;2022-08-19T04:15:30;47.23;;;29.23;;
43098;SDS011;28715;51.988;6.020;2022-08-19T04:18:00;42.13;;;28.70;;
43098;SDS011;28715;51.988;6.020;2022-08-19T04:20:26;43.77;;;27.63;;
43098;SDS011;28715;51.988;6.020;2022-08-19T04:22:52;44.50;;;29.63;;
43098;SDS011;28715;51.988;6.020;2022-08-19T04:25:18;41.87;;;27.50;;
43098;SDS011;28715;51.988;6.020;2022-08-19T04:27:43;39.97;;;26.63;;
43098;SDS011;28715;51.988;6.020;2022-08-19T04:30:11;51.13;;;30.33;;
43098;SDS011;28715;51.988;6.020;2022-08-19T04:32:37;45.60;;;28.87;;
43098;SDS011;28715;51.988;6.020;2022-08-19T04:35:03;41.20;;;28.63;;
43098;SDS011;28715;51.988;6.020;2022-08-19T04:37:29;52.33;;;30.83;;
43098;SDS011;28715;51.988;6.020;2022-08-19T04:39:57;44.63;;;27.90;;
43098;SDS011;28715;51.988;6.020;2022-08-19T04:42:55;43.87;;;29.93;;
43098;SDS011;28715;51.988;6.020;2022-08-19T04:45:21;48.10;;;30.23;;
43098;SDS011;28715;51.988;6.020;2022-08-19T04:47:46;48.27;;;29.50;;
43098;SDS011;28715;51.988;6.020;2022-08-19T04:50:12;49.47;;;29.77;;
43098;SDS011;28715;51.988;6.020;2022-08-19T04:52:38;40.27;;;27.67;;
43098;SDS011;28715;51.988;6.020;2022-08-19T04:55:08;51.10;;;31.42;;
43098;SDS011;28715;51.988;6.020;2022-08-19T04:57:37;41.93;;;27.07;;
43098;SDS011;28715;51.988;6.020;2022-08-19T05:00:05;43.43;;;28.93;;
43098;SDS011;28715;51.988;6.020;2022-08-19T05:02:32;41.90;;;27.33;;
43098;SDS011;28715;51.988;6.020;2022-08-19T05:04:58;44.70;;;29.30;;
43098;SDS011;28715;51.988;6.020;2022-08-19T05:07:25;44.20;;;27.80;;
43098;SDS011;28715;51.988;6.020;2022-08-19T05:09:51;50.70;;;30.03;;
43098;SDS011;28715;51.988;6.020;2022-08-19T05:12:17;48.30;;;30.37;;
43098;SDS011;28715;51.988;6.020;2022-08-19T05:14:43;46.83;;;30.33;;
43098;SDS011;28715;51.988;6.020;2022-08-19T05:17:10;43.80;;;28.73;;
43098;SDS011;28715;51.988;6.020;2022-08-19T05:19:36;43.20;;;27.87;;
43098;SDS011;28715;51.988;6.020;2022-08-19T05:22:20;44.00;;;28.33;;
43098;SDS011;28715;51.988;6.020;2022-08-19T05:24:57;45.03;;;29.27;;
43098;SDS011;28715;51.988;6.020;2022-08-19T05:27:25;43.00;;;28.77;;
43098;SDS011;28715;51.988;6.020;2022-08-19T05:29:51;37.17;;;25.70;;
43098;SDS011;28715;51.988;6.020;2022-08-19T05:32:16;47.20;;;27.67;;
43098;SDS011;28715;51.988;6.020;2022-08-19T05:34:41;41.60;;;29.30;;
43098;SDS011;28715;51.988;6.020;2022-08-19T05:37:07;45.97;;;29.67;;
43098;SDS011;28715;51.988;6.020;2022-08-19T05:39:34;42.77;;;29.27;;
43098;SDS011;28715;51.988;6.020;2022-08-19T05:42:03;37.35;;;27.42;;
43098;SDS011;28715;51.988;6.020;2022-08-19T05:44:34;40.40;;;29.43;;
43098;SDS011;28715;51.988;6.020;2022-08-19T05:47:02;39.30;;;27.92;;
43098;SDS011;28715;51.988;6.020;2022-08-19T05:49:30;37.40;;;27.97;;
43098;SDS011;28715;51.988;6.020;2022-08-19T05:51:57;38.83;;;27.67;;
43098;SDS011;28715;51.988;6.020;2022-08-19T05:54:24;38.13;;;27.17;;
43098;SDS011;28715;51.988;6.020;2022-08-19T05:56:50;40.47;;;29.20;;
43098;SDS011;28715;51.988;6.020;2022-08-19T05:59:17;40.17;;;30.20;;
43098;SDS011;28715;51.988;6.020;2022-08-19T06:01:46;40.88;;;30.33;;
43098;SDS011;28715;51.988;6.020;2022-08-19T06:04:16;39.10;;;28.45;;
43098;SDS011;28715;51.988;6.020;2022-08-19T06:06:43;40.60;;;29.50;;
43098;SDS011;28715;51.988;6.020;2022-08-19T06:09:10;39.70;;;29.67;;
43098;SDS011;28715;51.988;6.020;2022-08-19T06:14:03;42.23;;;29.43;;
43098;SDS011;28715;51.988;6.020;2022-08-19T06:16:33;44.80;;;31.53;;
43098;SDS011;28715;51.988;6.020;2022-08-19T06:19:07;40.63;;;29.90;;
43098;SDS011;28715;51.988;6.020;2022-08-19T06:21:35;42.30;;;31.63;;
43098;SDS011;28715;51.988;6.020;2022-08-19T06:24:03;41.97;;;29.23;;
43098;SDS011;28715;51.988;6.020;2022-08-19T06:26:31;43.83;;;30.70;;
43098;SDS011;28715;51.988;6.020;2022-08-19T06:28:57;41.83;;;31.23;;
43098;SDS011;28715;51.988;6.020;2022-08-19T06:31:25;48.10;;;35.40;;
43098;SDS011;28715;51.988;6.020;2022-08-19T06:33:52;47.50;;;36.10;;
43098;SDS011;28715;51.988;6.020;2022-08-19T06:36:22;49.33;;;35.80;;
43098;SDS011;28715;51.988;6.020;2022-08-19T06:38:54;44.30;;;33.23;;
43098;SDS011;28715;51.988;6.020;2022-08-19T06:41:22;45.13;;;32.90;;
43098;SDS011;28715;51.988;6.020;2022-08-19T06:43:49;50.40;;;35.37;;
43098;SDS011;28715;51.988;6.020;2022-08-19T06:46:15;51.10;;;34.73;;
43098;SDS011;28715;51.988;6.020;2022-08-19T06:48:42;46.17;;;34.20;;
43098;SDS011;28715;51.988;6.020;2022-08-19T06:51:08;50.53;;;35.97;;
43098;SDS011;28715;51.988;6.020;2022-08-19T06:53:34;47.70;;;35.63;;
43098;SDS011;28715;51.988;6.020;2022-08-19T06:55:59;52.23;;;37.33;;
43098;SDS011;28715;51.988;6.020;2022-08-19T06:58:28;49.92;;;34.72;;
43098;SDS011;28715;51.988;6.020;2022-08-19T07:01:06;52.53;;;36.67;;
43098;SDS011;28715;51.988;6.020;2022-08-19T07:03:33;49.73;;;34.80;;
43098;SDS011;28715;51.988;6.020;2022-08-19T07:06:11;50.80;;;34.65;;
43098;SDS011;28715;51.988;6.020;2022-08-19T07:08:40;56.72;;;37.83;;
43098;SDS011;28715;51.988;6.020;2022-08-19T07:11:08;58.73;;;38.73;;
43098;SDS011;28715;51.988;6.020;2022-08-19T07:13:35;59.33;;;39.93;;
43098;SDS011;28715;51.988;6.020;2022-08-19T07:16:09;60.73;;;39.77;;
43098;SDS011;28715;51.988;6.020;2022-08-19T07:18:36;57.90;;;39.93;;
43098;SDS011;28715;51.988;6.020;2022-08-19T07:21:13;53.90;;;37.30;;
43098;SDS011;28715;51.988;6.020;2022-08-19T07:23:41;55.75;;;37.03;;
43098;SDS011;28715;51.988;6.020;2022-08-19T07:26:08;52.63;;;35.60;;
43098;SDS011;28715;51.988;6.020;2022-08-19T07:28:37;56.00;;;38.87;;
43098;SDS011;28715;51.988;6.020;2022-08-19T07:31:06;56.67;;;37.85;;
43098;SDS011;28715;51.988;6.020;2022-08-19T07:33:32;60.00;;;40.47;;
43098;SDS011;28715;51.988;6.020;2022-08-19T07:36:02;61.90;;;40.55;;
43098;SDS011;28715;51.988;6.020;2022-08-19T07:38:30;65.50;;;42.47;;
43098;SDS011;28715;51.988;6.020;2022-08-19T07:40:56;65.37;;;42.93;;
43098;SDS011;28715;51.988;6.020;2022-08-19T07:43:21;66.97;;;42.93;;
43098;SDS011;28715;51.988;6.020;2022-08-19T07:45:51;63.40;;;40.63;;
43098;SDS011;28715;51.988;6.020;2022-08-19T07:48:20;65.30;;;43.87;;
43098;SDS011;28715;51.988;6.020;2022-08-19T07:50:49;64.38;;;43.95;;
43098;SDS011;28715;51.988;6.020;2022-08-19T07:53:15;66.20;;;44.50;;
43098;SDS011;28715;51.988;6.020;2022-08-19T07:55:41;69.50;;;44.87;;
43098;SDS011;28715;51.988;6.020;2022-08-19T07:58:06;64.10;;;42.50;;
43098;SDS011;28715;51.988;6.020;2022-08-19T08:00:33;59.60;;;39.23;;
43098;SDS011;28715;51.988;6.020;2022-08-19T08:02:59;62.03;;;40.90;;
43098;SDS011;28715;51.988;6.020;2022-08-19T08:05:25;65.47;;;42.07;;
43098;SDS011;28715;51.988;6.020;2022-08-19T08:08:11;66.27;;;43.93;;
43098;SDS011;28715;51.988;6.020;2022-08-19T08:10:55;64.80;;;42.17;;
43098;SDS011;28715;51.988;6.020;2022-08-19T08:13:21;54.57;;;36.80;;
43098;SDS011;28715;51.988;6.020;2022-08-19T08:15:47;63.07;;;42.57;;
43098;SDS011;28715;51.988;6.020;2022-08-19T08:18:14;63.90;;;43.40;;
43098;SDS011;28715;51.988;6.020;2022-08-19T08:20:39;61.90;;;44.27;;
43098;SDS011;28715;51.988;6.020;2022-08-19T08:23:05;62.67;;;43.40;;
43098;SDS011;28715;51.988;6.020;2022-08-19T08:25:50;65.53;;;45.40;;
43098;SDS011;28715;51.988;6.020;2022-08-19T08:28:19;65.67;;;47.37;;
43098;SDS011;28715;51.988;6.020;2022-08-19T08:30:46;59.23;;;43.17;;
43098;SDS011;28715;51.988;6.020;2022-08-19T08:33:13;57.37;;;44.47;;
43098;SDS011;28715;51.988;6.020;2022-08-19T08:35:43;61.60;;;44.47;;
43098;SDS011;28715;51.988;6.020;2022-08-19T08:38:10;62.87;;;48.93;;
43098;SDS011;28715;51.988;6.020;2022-08-19T08:40:43;57.53;;;44.33;;
43098;SDS011;28715;51.988;6.020;2022-08-19T08:46:05;53.00;;;41.63;;
43098;SDS011;28715;51.988;6.020;2022-08-19T08:48:36;53.13;;;43.03;;
43098;SDS011;28715;51.988;6.020;2022-08-19T08:51:12;55.17;;;43.40;;
43098;SDS011;28715;51.988;6.020;2022-08-19T08:53:44;50.40;;;41.00;;
43098;SDS011;28715;51.988;6.020;2022-08-19T08:56:11;48.83;;;41.97;;
43098;SDS011;28715;51.988;6.020;2022-08-19T09:01:25;39.93;;;34.83;;
43098;SDS011;28715;51.988;6.020;2022-08-19T09:03:52;44.03;;;38.20;;
43098;SDS011;28715;51.988;6.020;2022-08-19T09:06:22;43.37;;;36.67;;
43098;SDS011;28715;51.988;6.020;2022-08-19T09:09:09;36.93;;;31.17;;
43098;SDS011;28715;51.988;6.020;2022-08-19T09:16:53;28.37;;;23.43;;
43098;SDS011;28715;51.988;6.020;2022-08-19T09:19:19;28.90;;;22.40;;
43098;SDS011;28715;51.988;6.020;2022-08-19T09:21:44;26.00;;;21.57;;
43098;SDS011;28715;51.988;6.020;2022-08-19T09:24:10;25.80;;;21.23;;
43098;SDS011;28715;51.988;6.020;2022-08-19T09:26:36;24.77;;;21.17;;
43098;SDS011;28715;51.988;6.020;2022-08-19T09:29:01;24.93;;;21.30;;
43098;SDS011;28715;51.988;6.020;2022-08-19T09:31:29;23.85;;;21.25;;
43098;SDS011;28715;51.988;6.020;2022-08-19T09:33:57;25.63;;;22.50;;
43098;SDS011;28715;51.988;6.020;2022-08-19T09:36:25;22.43;;;18.00;;
43098;SDS011;28715;51.988;6.020;2022-08-19T09:38:54;23.13;;;18.50;;
43098;SDS011;28715;51.988;6.020;2022-08-19T09:41:22;21.33;;;17.63;;
43098;SDS011;28715;51.988;6.020;2022-08-19T09:43:51;21.67;;;18.70;;
43098;SDS011;28715;51.988;6.020;2022-08-19T09:46:19;25.80;;;19.97;;
43098;SDS011;28715;51.988;6.020;2022-08-19T09:48:48;27.23;;;21.30;;
43098;SDS011;28715;51.988;6.020;2022-08-19T09:51:16;25.17;;;20.27;;
43098;SDS011;28715;51.988;6.020;2022-08-19T09:53:45;25.87;;;21.47;;
43098;SDS011;28715;51.988;6.020;2022-08-19T09:56:11;29.33;;;23.03;;
43098;SDS011;28715;51.988;6.020;2022-08-19T09:58:38;27.67;;;22.23;;
43098;SDS011;28715;51.988;6.020;2022-08-19T10:01:04;29.53;;;24.17;;
43098;SDS011;28715;51.988;6.020;2022-08-19T10:03:32;34.33;;;24.87;;
43098;SDS011;28715;51.988;6.020;2022-08-19T10:05:59;35.83;;;26.83;;
43098;SDS011;28715;51.988;6.020;2022-08-19T10:08:31;33.63;;;27.35;;
43098;SDS011;28715;51.988;6.020;2022-08-19T10:10:59;33.60;;;27.43;;
43098;SDS011;28715;51.988;6.020;2022-08-19T10:13:26;34.13;;;26.80;;
43098;SDS011;28715;51.988;6.020;2022-08-19T10:15:54;34.53;;;28.10;;
43098;SDS011;28715;51.988;6.020;2022-08-19T10:18:31;34.90;;;26.10;;
43098;SDS011;28715;51.988;6.020;2022-08-19T10:21:12;31.87;;;25.17;;
43098;SDS011;28715;51.988;6.020;2022-08-19T10:23:40;29.40;;;23.27;;
43098;SDS011;28715;51.988;6.020;2022-08-19T10:26:10;38.30;;;26.10;;
43098;SDS011;28715;51.988;6.020;2022-08-19T10:28:38;35.60;;;25.13;;
43098;SDS011;28715;51.988;6.020;2022-08-19T10:31:07;35.93;;;26.53;;
43098;SDS011;28715;51.988;6.020;2022-08-19T10:33:35;36.53;;;25.50;;
43098;SDS011;28715;51.988;6.020;2022-08-19T10:36:03;33.23;;;25.07;;
43098;SDS011;28715;51.988;6.020;2022-08-19T10:38:31;29.73;;;23.60;;
43098;SDS011;28715;51.988;6.020;2022-08-19T10:40:57;30.97;;;22.87;;
43098;SDS011;28715;51.988;6.020;2022-08-19T10:43:23;28.40;;;21.50;;
43098;SDS011;28715;51.988;6.020;2022-08-19T10:45:53;28.53;;;22.43;;
43098;SDS011;28715;51.988;6.020;2022-08-19T10:48:24;28.33;;;21.53;;
43098;SDS011;28715;51.988;6.020;2022-08-19T10:50:49;28.00;;;21.80;;
43098;SDS011;28715;51.988;6.020;2022-08-19T10:53:33;29.03;;;23.27;;
43098;SDS011;28715;51.988;6.020;2022-08-19T10:55:59;26.43;;;19.67;;
43098;SDS011;28715;51.988;6.020;2022-08-19T10:58:43;29.63;;;21.80;;
43098;SDS011;28715;51.988;6.020;2022-08-19T11:01:09;25.83;;;21.10;;
43098;SDS011;28715;51.988;6.020;2022-08-19T11:03:35;26.07;;;20.00;;
43098;SDS011;28715;51.988;6.020;2022-08-19T11:06:00;26.93;;;20.17;;
43098;SDS011;28715;51.988;6.020;2022-08-19T11:08:28;24.77;;;19.23;;
43098;SDS011;28715;51.988;6.020;2022-08-19T11:10:55;27.27;;;20.07;;
43098;SDS011;28715;51.988;6.020;2022-08-19T11:13:32;30.77;;;22.83;;
43098;SDS011;28715;51.988;6.020;2022-08-19T11:16:02;28.87;;;21.07;;
43098;SDS011;28715;51.988;6.020;2022-08-19T11:18:31;30.27;;;21.77;;
43098;SDS011;28715;51.988;6.020;2022-08-19T11:21:08;28.50;;;20.77;;
43098;SDS011;28715;51.988;6.020;2022-08-19T11:23:39;28.23;;;21.80;;
43098;SDS011;28715;51.988;6.020;2022-08-19T11:26:05;30.93;;;22.03;;
43098;SDS011;28715;51.988;6.020;2022-08-19T11:28:31;28.73;;;21.33;;
43098;SDS011;28715;51.988;6.020;2022-08-19T11:30:57;26.83;;;21.13;;
43098;SDS011;28715;51.988;6.020;2022-08-19T11:33:22;26.27;;;20.83;;
43098;SDS011;28715;51.988;6.020;2022-08-19T11:35:48;32.10;;;21.73;;
43098;SDS011;28715;51.988;6.020;2022-08-19T11:38:14;28.80;;;20.10;;
43098;SDS011;28715;51.988;6.020;2022-08-19T11:40:39;26.77;;;21.17;;
43098;SDS011;28715;51.988;6.020;2022-08-19T11:43:07;26.00;;;19.43;;
43098;SDS011;28715;51.988;6.020;2022-08-19T11:45:34;25.53;;;19.90;;
43098;SDS011;28715;51.988;6.020;2022-08-19T11:48:00;27.27;;;20.37;;
43098;SDS011;28715;51.988;6.020;2022-08-19T11:50:26;29.07;;;20.37;;
43098;SDS011;28715;51.988;6.020;2022-08-19T11:52:56;25.80;;;19.87;;
43098;SDS011;28715;51.988;6.020;2022-08-19T11:55:22;26.03;;;21.00;;
43098;SDS011;28715;51.988;6.020;2022-08-19T11:57:48;30.87;;;20.60;;
43098;SDS011;28715;51.988;6.020;2022-08-19T12:00:14;28.73;;;22.67;;
43098;SDS011;28715;51.988;6.020;2022-08-19T12:02:40;24.57;;;19.00;;
43098;SDS011;28715;51.988;6.020;2022-08-19T12:05:06;26.07;;;20.70;;
43098;SDS011;28715;51.988;6.020;2022-08-19T12:07:32;27.63;;;20.87;;
43098;SDS011;28715;51.988;6.020;2022-08-19T12:09:59;24.00;;;19.60;;
43098;SDS011;28715;51.988;6.020;2022-08-19T12:12:26;21.03;;;16.63;;
43098;SDS011;28715;51.988;6.020;2022-08-19T12:14:52;24.93;;;18.70;;
43098;SDS011;28715;51.988;6.020;2022-08-19T12:17:27;22.67;;;18.13;;
43098;SDS011;28715;51.988;6.020;2022-08-19T12:19:53;19.27;;;16.00;;
43098;SDS011;28715;51.988;6.020;2022-08-19T12:22:19;22.20;;;17.17;;
43098;SDS011;28715;51.988;6.020;2022-08-19T12:24:46;20.43;;;15.70;;
43098;SDS011;28715;51.988;6.020;2022-08-19T12:27:12;25.60;;;18.43;;
43098;SDS011;28715;51.988;6.020;2022-08-19T12:29:38;19.80;;;16.10;;
43098;SDS011;28715;51.988;6.020;2022-08-19T12:32:04;19.13;;;16.43;;
43098;SDS011;28715;51.988;6.020;2022-08-19T12:34:29;20.73;;;16.03;;
43098;SDS011;28715;51.988;6.020;2022-08-19T12:36:57;23.50;;;17.43;;
43098;SDS011;28715;51.988;6.020;2022-08-19T12:39:23;22.37;;;16.93;;
43098;SDS011;28715;51.988;6.020;2022-08-19T12:41:49;18.40;;;15.43;;
43098;SDS011;28715;51.988;6.020;2022-08-19T12:44:16;18.20;;;14.10;;
43098;SDS011;28715;51.988;6.020;2022-08-19T12:46:41;17.03;;;13.50;;
43098;SDS011;28715;51.988;6.020;2022-08-19T12:49:07;17.17;;;13.03;;
43098;SDS011;28715;51.988;6.020;2022-08-19T12:51:32;18.97;;;15.60;;
43098;SDS011;28715;51.988;6.020;2022-08-19T12:53:58;22.20;;;17.27;;
43098;SDS011;28715;51.988;6.020;2022-08-19T12:56:24;21.67;;;17.33;;
43098;SDS011;28715;51.988;6.020;2022-08-19T12:58:49;21.03;;;18.10;;
43098;SDS011;28715;51.988;6.020;2022-08-19T13:01:15;25.97;;;20.90;;
43098;SDS011;28715;51.988;6.020;2022-08-19T13:03:42;24.20;;;19.63;;
43098;SDS011;28715;51.988;6.020;2022-08-19T13:06:10;20.13;;;17.63;;
43098;SDS011;28715;51.988;6.020;2022-08-19T13:08:35;22.47;;;19.07;;
43098;SDS011;28715;51.988;6.020;2022-08-19T13:11:21;22.70;;;19.07;;
43098;SDS011;28715;51.988;6.020;2022-08-19T13:13:49;24.07;;;19.03;;
43098;SDS011;28715;51.988;6.020;2022-08-19T13:16:16;25.60;;;20.33;;
43098;SDS011;28715;51.988;6.020;2022-08-19T13:18:44;24.67;;;20.33;;
43098;SDS011;28715;51.988;6.020;2022-08-19T13:21:17;22.97;;;19.70;;
43098;SDS011;28715;51.988;6.020;2022-08-19T13:23:44;21.48;;;17.88;;
43098;SDS011;28715;51.988;6.020;2022-08-19T13:26:11;23.43;;;17.27;;
43098;SDS011;28715;51.988;6.020;2022-08-19T13:28:37;20.73;;;17.63;;
43098;SDS011;28715;51.988;6.020;2022-08-19T13:31:23;26.67;;;18.87;;
43098;SDS011;28715;51.988;6.020;2022-08-19T13:34:12;24.87;;;19.77;;
43098;SDS011;28715;51.988;6.020;2022-08-19T13:36:38;21.87;;;18.63;;
43098;SDS011;28715;51.988;6.020;2022-08-19T13:39:04;20.63;;;17.67;;
43098;SDS011;28715;51.988;6.020;2022-08-19T13:41:32;21.58;;;17.30;;
43098;SDS011;28715;51.988;6.020;2022-08-19T13:43:59;22.80;;;18.67;;
43098;SDS011;28715;51.988;6.020;2022-08-19T13:46:24;21.77;;;18.10;;
43098;SDS011;28715;51.988;6.020;2022-08-19T13:48:50;22.77;;;18.93;;
43098;SDS011;28715;51.988;6.020;2022-08-19T13:51:16;20.80;;;18.33;;
43098;SDS011;28715;51.988;6.020;2022-08-19T13:53:42;22.97;;;20.47;;
43098;SDS011;28715;51.988;6.020;2022-08-19T13:56:09;20.33;;;18.03;;
43098;SDS011;28715;51.988;6.020;2022-08-19T13:58:37;18.70;;;16.60;;
43098;SDS011;28715;51.988;6.020;2022-08-19T14:01:03;21.27;;;16.70;;
43098;SDS011;28715;51.988;6.020;2022-08-19T14:03:29;18.70;;;16.50;;
43098;SDS011;28715;51.988;6.020;2022-08-19T14:05:55;18.50;;;16.50;;
43098;SDS011;28715;51.988;6.020;2022-08-19T14:08:22;20.70;;;17.90;;
43098;SDS011;28715;51.988;6.020;2022-08-19T14:10:48;19.07;;;16.67;;
43098;SDS011;28715;51.988;6.020;2022-08-19T14:13:15;23.00;;;19.53;;
43098;SDS011;28715;51.988;6.020;2022-08-19T14:15:43;23.73;;;20.17;;
43098;SDS011;28715;51.988;6.020;2022-08-19T14:18:09;20.13;;;16.60;;
43098;SDS011;28715;51.988;6.020;2022-08-19T14:20:35;22.77;;;16.83;;
43098;SDS011;28715;51.988;6.020;2022-08-19T14:23:02;20.37;;;17.77;;
43098;SDS011;28715;51.988;6.020;2022-08-19T14:25:31;18.65;;;15.63;;
43098;SDS011;28715;51.988;6.020;2022-08-19T14:27:58;21.87;;;19.30;;
43098;SDS011;28715;51.988;6.020;2022-08-19T14:30:26;18.87;;;16.87;;
43098;SDS011;28715;51.988;6.020;2022-08-19T14:32:58;24.13;;;18.90;;
43098;SDS011;28715;51.988;6.020;2022-08-19T14:35:26;25.37;;;22.27;;
43098;SDS011;28715;51.988;6.020;2022-08-19T14:37:53;24.97;;;22.27;;
43098;SDS011;28715;51.988;6.020;2022-08-19T14:40:20;27.10;;;22.13;;
43098;SDS011;28715;51.988;6.020;2022-08-19T14:42:50;23.33;;;20.37;;
43098;SDS011;28715;51.988;6.020;2022-08-19T14:45:17;24.77;;;20.63;;
43098;SDS011;28715;51.988;6.020;2022-08-19T14:47:42;23.70;;;21.13;;